Time;durP1;ratioP1;P1;durP2;ratioP2;P2;SDS_P1;SDS_P2;PMS_P1;PMS_P2;Temp;Humidity;BMP_temperature;BMP_pressure;BME280_temperature;BME280_humidity;BME280_pressure;Samples;Min_cycle;Max_cycle;Signal;HPM_P1;HPM_P2
2021/07/10 00:01:18;;;;;;;7.85;5.65;;;19.70;68.80;;;;;;5012028;28;20362;-93
2021/07/10 00:03:44;;;;;;;7.82;5.43;;;19.70;68.70;;;;;;5012478;28;20076;-93
2021/07/10 00:06:10;;;;;;;7.75;5.40;;;19.70;68.60;;;;;;5013015;28;20026;-93
2021/07/10 00:08:35;;;;;;;7.47;5.63;;;19.70;68.60;;;;;;5012890;28;20112;-93
2021/07/10 00:11:03;;;;;;;8.30;5.68;;;19.70;68.60;;;;;;5013048;28;20034;-94
2021/07/10 00:13:29;;;;;;;8.10;5.60;;;19.80;68.50;;;;;;5012567;28;20033;-93
2021/07/10 00:15:54;;;;;;;7.47;5.40;;;19.80;68.40;;;;;;5011678;28;20030;-94
2021/07/10 00:18:20;;;;;;;6.78;4.97;;;19.80;68.30;;;;;;5012880;28;20495;-93
2021/07/10 00:20:46;;;;;;;7.43;5.38;;;19.80;68.20;;;;;;5013305;28;20029;-95
2021/07/10 00:23:12;;;;;;;6.13;4.70;;;19.70;68.30;;;;;;5011708;28;20388;-94
2021/07/10 00:25:38;;;;;;;7.25;5.45;;;19.70;68.80;;;;;;5012981;28;20022;-94
2021/07/10 00:28:04;;;;;;;7.50;5.60;;;19.60;69.10;;;;;;5011629;28;20022;-93
2021/07/10 00:30:30;;;;;;;11.48;6.28;;;19.60;69.20;;;;;;5012953;28;20097;-95
2021/07/10 00:32:56;;;;;;;7.32;5.40;;;19.50;69.30;;;;;;5011051;28;20485;-93
2021/07/10 00:35:22;;;;;;;7.90;5.38;;;19.50;69.50;;;;;;5011527;28;20026;-95
2021/07/10 00:37:47;;;;;;;9.15;6.45;;;19.50;70.10;;;;;;5012944;28;20018;-94
2021/07/10 00:40:14;;;;;;;7.47;5.75;;;19.40;69.70;;;;;;5012572;28;20038;-94
2021/07/10 00:42:40;;;;;;;9.27;6.18;;;19.40;69.60;;;;;;5012116;28;20041;-95
2021/07/10 00:45:11;;;;;;;7.95;5.53;;;19.40;69.60;;;;;;5012034;28;20051;-94
2021/07/10 00:47:38;;;;;;;8.60;5.80;;;19.40;69.70;;;;;;5010288;28;20033;-91
2021/07/10 00:50:18;;;;;;;10.63;6.40;;;19.40;69.60;;;;;;5012306;28;20022;-93
2021/07/10 00:52:44;;;;;;;8.30;5.57;;;19.40;69.50;;;;;;5013277;28;20022;-94
2021/07/10 00:55:12;;;;;;;8.60;6.35;;;19.40;69.40;;;;;;5017703;28;20018;-92
2021/07/10 00:57:38;;;;;;;8.90;5.32;;;19.40;69.50;;;;;;5017908;28;20532;-94
2021/07/10 01:00:19;;;;;;;9.15;6.03;;;19.40;69.60;;;;;;5012693;28;20033;-94
2021/07/10 01:03:00;;;;;;;9.23;6.28;;;19.40;69.70;;;;;;5010488;28;20046;-94
2021/07/10 01:05:28;;;;;;;8.27;5.75;;;19.40;69.70;;;;;;5012151;28;20018;-93
2021/07/10 01:07:57;;;;;;;8.40;6.22;;;19.50;69.50;;;;;;5011999;28;20496;-95
2021/07/10 01:10:24;;;;;;;9.25;6.80;;;19.50;69.30;;;;;;5012304;28;20088;-95
2021/07/10 01:12:51;;;;;;;8.30;6.03;;;19.60;69.20;;;;;;5014368;28;20049;-95
2021/07/10 01:15:21;;;;;;;7.60;5.47;;;19.60;69.10;;;;;;5014677;28;20022;-96
2021/07/10 01:17:48;;;;;;;8.05;5.55;;;19.60;69.10;;;;;;5016629;28;20477;-96
2021/07/10 01:20:19;;;;;;;7.57;5.60;;;19.60;69.00;;;;;;5019825;28;20116;-96
2021/07/10 01:22:46;;;;;;;8.32;5.97;;;19.60;69.10;;;;;;5019039;28;20040;-96
2021/07/10 01:25:18;;;;;;;7.88;6.07;;;19.70;69.10;;;;;;5018809;28;20025;-96
2021/07/10 01:27:44;;;;;;;7.97;5.93;;;19.60;69.10;;;;;;5020327;28;20064;-96
2021/07/10 01:30:13;;;;;;;8.75;5.60;;;19.60;69.00;;;;;;5018907;28;20627;-96
2021/07/10 01:32:39;;;;;;;7.13;5.40;;;19.70;69.10;;;;;;5017299;28;20029;-96
2021/07/10 01:35:07;;;;;;;8.13;5.53;;;19.70;69.00;;;;;;5014593;28;20026;-96
2021/07/10 01:37:33;;;;;;;8.60;5.30;;;19.70;69.00;;;;;;5015424;28;20022;-96
2021/07/10 01:39:59;;;;;;;7.53;5.20;;;19.70;69.00;;;;;;5014459;28;20073;-95
2021/07/10 01:42:25;;;;;;;8.32;5.38;;;19.70;69.00;;;;;;5014979;28;20066;-95
2021/07/10 01:44:51;;;;;;;9.35;6.03;;;19.70;69.10;;;;;;5016252;28;20018;-95
2021/07/10 01:47:17;;;;;;;8.68;5.38;;;19.60;69.20;;;;;;5013841;28;20026;-92
2021/07/10 01:49:43;;;;;;;9.73;5.97;;;19.60;69.30;;;;;;5013287;28;20439;-94
2021/07/10 01:52:09;;;;;;;7.78;5.70;;;19.50;69.60;;;;;;5013717;28;20029;-94
2021/07/10 01:54:34;;;;;;;8.43;5.43;;;19.50;69.80;;;;;;5016058;28;20049;-96
2021/07/10 01:57:00;;;;;;;6.70;5.07;;;19.40;69.80;;;;;;5015087;28;20030;-96
2021/07/10 01:59:26;;;;;;;7.55;5.78;;;19.40;69.90;;;;;;5015056;28;20105;-96
2021/07/10 02:01:52;;;;;;;9.10;6.60;;;19.40;69.80;;;;;;5014215;28;20516;-95
2021/07/10 02:04:21;;;;;;;8.27;5.30;;;19.40;70.00;;;;;;5020350;28;20541;-96
2021/07/10 02:06:47;;;;;;;8.38;5.85;;;19.30;70.10;;;;;;5021375;28;20072;-96
2021/07/10 02:09:13;;;;;;;7.82;5.97;;;19.30;70.10;;;;;;5013956;28;20397;-94
2021/07/10 02:11:58;;;;;;;9.23;6.10;;;19.30;70.00;;;;;;5012974;28;20148;-94
2021/07/10 02:14:23;;;;;;;9.07;6.00;;;19.30;69.90;;;;;;5014607;28;20029;-94
2021/07/10 02:16:49;;;;;;;8.82;5.55;;;19.30;69.80;;;;;;5014682;28;20389;-94
2021/07/10 02:19:14;;;;;;;11.38;6.78;;;19.30;69.90;;;;;;5014423;28;20026;-94
2021/07/10 02:21:40;;;;;;;10.45;6.65;;;19.40;69.90;;;;;;5012843;28;20192;-94
2021/07/10 02:24:07;;;;;;;8.40;6.05;;;19.40;69.90;;;;;;5014369;28;20033;-96
2021/07/10 02:26:33;;;;;;;9.27;6.43;;;19.30;69.90;;;;;;5013577;28;20026;-96
2021/07/10 02:28:59;;;;;;;8.95;5.97;;;19.30;70.00;;;;;;5014622;28;20345;-95
2021/07/10 02:31:25;;;;;;;8.48;5.63;;;19.30;70.20;;;;;;5014835;28;20074;-96
2021/07/10 02:33:51;;;;;;;8.20;5.75;;;19.20;70.30;;;;;;5017794;28;20096;-95
2021/07/10 02:36:17;;;;;;;7.18;5.30;;;19.20;70.30;;;;;;5013368;28;20053;-96
2021/07/10 02:38:43;;;;;;;7.43;5.25;;;19.20;70.50;;;;;;5014802;28;20105;-96
2021/07/10 02:41:08;;;;;;;8.57;5.95;;;19.10;70.70;;;;;;5014403;28;20117;-96
2021/07/10 02:43:34;;;;;;;9.05;6.40;;;19.10;70.80;;;;;;5013549;28;20481;-95
2021/07/10 02:46:00;;;;;;;8.05;5.65;;;19.10;70.70;;;;;;5014525;28;20377;-96
2021/07/10 02:48:25;;;;;;;8.38;5.63;;;19.10;70.70;;;;;;5026496;28;20049;-96
2021/07/10 02:50:51;;;;;;;8.55;6.10;;;19.10;70.70;;;;;;5022045;28;20089;-96
2021/07/10 02:53:17;;;;;;;7.68;6.00;;;19.10;70.70;;;;;;5019098;28;20030;-96
2021/07/10 02:55:43;;;;;;;9.55;5.43;;;19.00;70.70;;;;;;5023969;28;20021;-95
2021/07/10 02:58:08;;;;;;;7.63;5.82;;;19.00;70.70;;;;;;5021223;28;20028;-96
2021/07/10 03:00:34;;;;;;;8.48;5.90;;;19.00;70.80;;;;;;5025528;28;20072;-95
2021/07/10 03:03:00;;;;;;;8.85;5.88;;;19.00;70.70;;;;;;5015497;28;20044;-95
2021/07/10 03:05:27;;;;;;;9.05;6.00;;;19.00;70.70;;;;;;5014943;28;20084;-92
2021/07/10 03:07:53;;;;;;;7.85;5.93;;;18.90;70.70;;;;;;5014169;28;20069;-95
2021/07/10 03:10:22;;;;;;;7.65;5.45;;;18.80;70.80;;;;;;5013755;28;20117;-95
2021/07/10 03:12:48;;;;;;;7.18;5.35;;;18.80;71.10;;;;;;5013831;28;20433;-94
2021/07/10 03:15:16;;;;;;;8.23;5.70;;;18.80;71.10;;;;;;5012515;28;20496;-94
2021/07/10 03:17:43;;;;;;;8.20;5.68;;;18.80;71.10;;;;;;5013627;28;20018;-94
2021/07/10 03:20:09;;;;;;;8.30;5.63;;;18.80;71.10;;;;;;5013473;28;20033;-95
2021/07/10 03:22:35;;;;;;;7.15;5.50;;;18.70;71.00;;;;;;5012923;28;20034;-94
2021/07/10 03:25:02;;;;;;;7.22;5.20;;;18.70;71.20;;;;;;5014033;28;20086;-95
2021/07/10 03:27:28;;;;;;;7.90;5.90;;;18.70;71.20;;;;;;5013413;28;20025;-96
2021/07/10 03:29:53;;;;;;;7.95;5.70;;;18.60;71.20;;;;;;5012493;28;20025;-96
2021/07/10 03:32:19;;;;;;;8.88;5.45;;;18.60;71.20;;;;;;5015369;28;20080;-96
2021/07/10 03:34:45;;;;;;;8.00;5.57;;;18.60;71.10;;;;;;5014413;28;20050;-96
2021/07/10 03:37:11;;;;;;;7.88;5.80;;;18.60;71.10;;;;;;5016849;28;20022;-96
2021/07/10 03:39:36;;;;;;;6.65;4.88;;;18.50;71.20;;;;;;5016917;28;20121;-96
2021/07/10 03:42:04;;;;;;;7.28;5.65;;;18.50;71.40;;;;;;5017746;28;20056;-96
2021/07/10 03:44:58;;;;;;;9.32;5.63;;;18.50;71.40;;;;;;5028162;28;20014;-96
2021/07/10 03:47:31;;;;;;;6.82;5.20;;;18.40;71.50;;;;;;5021569;28;20041;-96
2021/07/10 03:49:56;;;;;;;7.32;5.28;;;18.40;71.50;;;;;;5015211;28;20018;-95
2021/07/10 03:52:22;;;;;;;7.07;5.50;;;18.50;71.40;;;;;;5012887;28;20357;-96
2021/07/10 03:54:48;;;;;;;7.63;5.38;;;18.50;71.30;;;;;;5013286;28;20354;-96
2021/07/10 03:57:14;;;;;;;7.68;5.38;;;18.50;71.30;;;;;;5013365;28;20025;-94
2021/07/10 03:59:39;;;;;;;7.50;5.90;;;18.50;71.30;;;;;;5013589;28;20029;-96
2021/07/10 04:02:05;;;;;;;7.28;5.65;;;18.50;71.20;;;;;;5013326;28;20038;-96
2021/07/10 04:04:31;;;;;;;8.65;5.55;;;18.60;71.20;;;;;;5013184;28;20025;-96
2021/07/10 04:07:00;;;;;;;9.63;6.15;;;18.60;71.10;;;;;;5013593;28;20030;-94
2021/07/10 04:09:26;;;;;;;8.98;6.65;;;18.70;71.20;;;;;;5013114;28;20042;-94
2021/07/10 04:11:52;;;;;;;9.55;6.82;;;18.70;71.80;;;;;;5019165;28;20037;-95
2021/07/10 04:14:18;;;;;;;8.02;5.97;;;18.70;71.10;;;;;;5021405;28;20029;-94
2021/07/10 04:16:43;;;;;;;9.50;5.93;;;18.80;71.10;;;;;;5029293;28;20053;-95
2021/07/10 04:19:09;;;;;;;8.20;6.13;;;18.80;71.10;;;;;;5021574;28;20022;-96
2021/07/10 04:21:34;;;;;;;7.90;6.20;;;18.80;71.30;;;;;;5014086;28;20062;-96
2021/07/10 04:24:00;;;;;;;9.27;6.88;;;18.80;71.30;;;;;;5013045;28;20033;-95
2021/07/10 04:26:26;;;;;;;10.68;7.72;;;18.90;71.40;;;;;;5012724;28;20025;-95
2021/07/10 04:28:51;;;;;;;9.95;6.90;;;18.90;71.30;;;;;;5012359;28;20026;-96
2021/07/10 04:31:17;;;;;;;13.93;8.27;;;19.00;71.50;;;;;;5013444;28;20481;-94
2021/07/10 04:33:43;;;;;;;10.48;7.40;;;19.00;71.80;;;;;;5011483;28;20084;-95
2021/07/10 04:36:09;;;;;;;11.77;7.85;;;19.00;71.80;;;;;;5011863;28;20121;-95
2021/07/10 04:38:37;;;;;;;9.55;7.32;;;19.00;72.00;;;;;;5012491;28;20018;-96
2021/07/10 04:41:04;;;;;;;9.27;6.38;;;18.90;72.00;;;;;;5010647;28;20061;-94
2021/07/10 04:43:30;;;;;;;12.27;8.45;;;19.00;72.10;;;;;;5011540;28;20030;-93
2021/07/10 04:45:56;;;;;;;12.05;9.27;;;19.10;72.10;;;;;;5013613;28;20591;-95
2021/07/10 04:48:22;;;;;;;11.38;8.00;;;19.00;72.50;;;;;;5016331;28;20049;-96
2021/07/10 04:50:48;;;;;;;12.23;8.05;;;19.10;72.50;;;;;;5017057;28;20014;-94
2021/07/10 04:53:13;;;;;;;11.38;8.07;;;19.20;72.30;;;;;;5014922;28;20041;-93
2021/07/10 04:55:39;;;;;;;8.80;6.47;;;19.20;72.10;;;;;;5016450;28;20029;-94
2021/07/10 04:58:05;;;;;;;11.85;8.88;;;19.30;71.90;;;;;;5016473;28;20025;-93
2021/07/10 05:00:30;;;;;;;14.05;9.50;;;19.40;72.00;;;;;;5016990;28;20021;-94
2021/07/10 05:02:56;;;;;;;18.30;11.70;;;19.60;72.30;;;;;;5015797;28;20122;-94
2021/07/10 05:05:21;;;;;;;14.73;10.73;;;19.80;72.00;;;;;;5016569;28;20025;-94
2021/07/10 05:07:47;;;;;;;10.68;7.53;;;20.20;71.20;;;;;;5016098;28;20022;-93
2021/07/10 05:10:13;;;;;;;10.77;7.85;;;20.50;70.10;;;;;;5016560;28;20018;-94
2021/07/10 05:12:39;;;;;;;10.38;7.10;;;21.00;69.10;;;;;;5016574;28;20423;-94
2021/07/10 05:15:06;;;;;;;12.93;8.43;;;21.30;68.20;;;;;;5015178;28;20117;-93
2021/07/10 05:17:31;;;;;;;9.63;7.30;;;21.40;67.50;;;;;;5016016;28;20022;-93
2021/07/10 05:19:57;;;;;;;9.98;6.45;;;21.70;67.10;;;;;;5015815;28;20078;-94
2021/07/10 05:22:22;;;;;;;7.40;5.65;;;21.80;66.50;;;;;;5015751;28;20038;-93
2021/07/10 05:24:48;;;;;;;9.07;6.50;;;22.00;66.20;;;;;;5016177;28;20029;-93
2021/07/10 05:27:14;;;;;;;11.40;7.63;;;22.20;65.80;;;;;;5016308;28;20022;-95
2021/07/10 05:29:39;;;;;;;15.85;11.25;;;22.30;65.50;;;;;;5016753;28;20493;-94
2021/07/10 05:32:06;;;;;;;11.27;7.45;;;22.50;65.10;;;;;;5015982;28;20510;-96
2021/07/10 05:34:34;;;;;;;11.15;8.07;;;22.50;64.80;;;;;;5031314;28;20117;-96
2021/07/10 05:37:00;;;;;;;10.85;7.53;;;22.90;64.40;;;;;;5015128;28;20048;-94
2021/07/10 05:39:25;;;;;;;10.30;7.15;;;23.10;63.70;;;;;;5014777;28;20018;-95
2021/07/10 05:41:51;;;;;;;14.02;9.95;;;23.40;63.30;;;;;;5015346;28;20042;-94
2021/07/10 05:44:17;;;;;;;12.88;9.52;;;23.30;62.90;;;;;;5015569;28;20073;-94
2021/07/10 05:46:42;;;;;;;15.10;11.25;;;23.00;63.50;;;;;;5015016;28;20109;-94
2021/07/10 05:49:08;;;;;;;10.25;7.43;;;22.70;64.20;;;;;;5015332;28;20130;-94
2021/07/10 05:51:33;;;;;;;9.82;7.90;;;22.80;64.60;;;;;;5015033;28;20030;-93
2021/07/10 05:54:18;;;;;;;9.43;6.22;;;23.10;64.00;;;;;;5014438;28;20022;-94
2021/07/10 05:56:44;;;;;;;10.15;7.57;;;23.30;63.50;;;;;;5013776;28;20068;-92
2021/07/10 05:59:10;;;;;;;12.02;8.93;;;23.30;63.50;;;;;;5014093;28;20101;-92
2021/07/10 06:01:36;;;;;;;15.40;11.10;;;23.50;63.20;;;;;;5014335;28;20517;-92
2021/07/10 06:04:01;;;;;;;15.05;11.27;;;23.70;62.50;;;;;;5014488;28;20041;-93
2021/07/10 06:06:29;;;;;;;14.63;9.98;;;23.50;62.30;;;;;;5014987;28;20029;-94
2021/07/10 06:08:54;;;;;;;15.50;11.85;;;23.50;62.60;;;;;;5014834;28;20033;-95
2021/07/10 06:11:20;;;;;;;12.45;9.05;;;23.50;62.60;;;;;;5015729;28;20022;-93
2021/07/10 06:13:46;;;;;;;16.20;12.05;;;23.60;62.70;;;;;;5015038;28;20114;-93
2021/07/10 06:16:11;;;;;;;17.02;12.43;;;23.70;62.50;;;;;;5026471;28;20075;-91
2021/07/10 06:18:39;;;;;;;12.35;9.55;;;23.50;62.60;;;;;;5017569;28;20610;-92
2021/07/10 06:21:05;;;;;;;14.10;11.38;;;23.30;63.00;;;;;;5032581;28;20026;-93
2021/07/10 06:23:30;;;;;;;12.75;9.45;;;23.10;63.10;;;;;;5022054;28;20389;-90
2021/07/10 06:25:56;;;;;;;16.98;11.70;;;23.10;63.60;;;;;;5025638;28;20045;-91
2021/07/10 06:28:25;;;;;;;10.98;7.55;;;23.00;63.60;;;;;;5019508;28;20029;-90
2021/07/10 06:30:50;;;;;;;11.52;8.32;;;23.00;63.90;;;;;;5024090;28;20017;-90
2021/07/10 06:33:16;;;;;;;12.25;9.98;;;23.00;63.90;;;;;;5029467;28;20357;-88
2021/07/10 06:35:41;;;;;;;16.48;12.25;;;23.00;63.80;;;;;;5032474;28;20025;-93
2021/07/10 06:38:07;;;;;;;14.98;11.77;;;23.00;63.60;;;;;;5012203;28;20495;-93
2021/07/10 06:40:33;;;;;;;15.50;12.70;;;23.10;63.70;;;;;;5013869;28;20702;-92
2021/07/10 06:42:58;;;;;;;17.52;13.88;;;23.10;63.40;;;;;;5012518;28;20041;-92
2021/07/10 06:45:24;;;;;;;9.68;6.93;;;22.90;63.10;;;;;;5012791;28;20081;-90
2021/07/10 06:47:50;;;;;;;12.38;9.45;;;23.00;63.30;;;;;;5013920;28;20037;-92
2021/07/10 06:50:19;;;;;;;12.65;9.52;;;23.10;63.10;;;;;;5012181;28;20013;-91
2021/07/10 06:52:46;;;;;;;18.20;12.60;;;23.20;62.90;;;;;;4992413;28;20033;-92
2021/07/10 06:55:23;;;;;;;17.05;13.68;;;23.30;62.60;;;;;;5005685;28;20052;-93
2021/07/10 06:57:49;;;;;;;18.63;15.18;;;23.20;62.30;;;;;;5014688;28;20034;-91
2021/07/10 07:00:16;;;;;;;23.35;18.13;;;22.90;62.20;;;;;;5016981;28;20152;-92
2021/07/10 07:02:42;;;;;;;14.25;10.10;;;22.80;62.40;;;;;;5018246;28;20030;-85
2021/07/10 07:05:10;;;;;;;13.68;10.95;;;22.80;62.80;;;;;;5016515;28;20025;-86
2021/07/10 07:07:35;;;;;;;12.35;8.68;;;23.10;62.60;;;;;;5014800;28;20124;-86
2021/07/10 07:10:02;;;;;;;16.92;14.10;;;23.20;62.20;;;;;;5015248;28;20113;-87
2021/07/10 07:12:28;;;;;;;13.35;10.60;;;23.40;62.20;;;;;;5017991;28;20032;-85
2021/07/10 07:14:53;;;;;;;14.95;11.55;;;23.40;62.00;;;;;;5017133;28;20025;-87
2021/07/10 07:17:19;;;;;;;12.82;10.25;;;23.40;61.90;;;;;;5017996;28;20033;-86
2021/07/10 07:19:45;;;;;;;15.07;10.75;;;23.50;62.00;;;;;;5019454;28;20022;-85
2021/07/10 07:22:10;;;;;;;12.07;9.52;;;23.60;62.00;;;;;;5018809;28;20033;-87
2021/07/10 07:24:36;;;;;;;11.02;8.32;;;23.50;61.90;;;;;;5017978;28;20025;-87
2021/07/10 07:27:02;;;;;;;11.95;9.70;;;23.60;61.60;;;;;;5020938;28;20040;-87
2021/07/10 07:29:27;;;;;;;9.48;7.63;;;23.50;61.60;;;;;;5013306;28;20500;-86
2021/07/10 07:31:53;;;;;;;10.18;8.00;;;23.50;61.80;;;;;;5021182;28;20688;-86
2021/07/10 07:34:18;;;;;;;11.07;7.72;;;23.50;61.60;;;;;;5012917;28;20049;-86
2021/07/10 07:36:44;;;;;;;9.57;7.40;;;23.60;61.40;;;;;;5018097;28;20396;-87
2021/07/10 07:39:10;;;;;;;10.68;7.75;;;23.80;61.10;;;;;;5021484;28;20388;-87
2021/07/10 07:41:37;;;;;;;11.52;8.80;;;23.80;60.70;;;;;;5019990;28;20060;-87
2021/07/10 07:44:04;;;;;;;11.57;8.90;;;23.80;60.70;;;;;;5017095;28;20038;-86
2021/07/10 07:46:30;;;;;;;8.85;6.97;;;23.80;60.60;;;;;;5031019;28;20523;-86
2021/07/10 07:48:55;;;;;;;7.82;6.40;;;24.10;60.40;;;;;;5031036;28;20029;-88
2021/07/10 07:51:22;;;;;;;9.23;7.68;;;24.20;60.00;;;;;;5029638;28;20029;-88
2021/07/10 07:53:50;;;;;;;10.07;8.20;;;24.30;59.60;;;;;;5031216;28;20022;-88
2021/07/10 07:56:16;;;;;;;9.55;7.53;;;24.20;59.50;;;;;;5031031;28;20496;-89
2021/07/10 07:58:42;;;;;;;9.98;8.68;;;24.20;59.60;;;;;;5021604;28;20423;-87
2021/07/10 08:01:09;;;;;;;9.20;6.85;;;24.10;59.50;;;;;;5020215;28;20495;-88
2021/07/10 08:03:35;;;;;;;8.88;6.80;;;24.00;59.90;;;;;;5015908;28;20042;-87
2021/07/10 08:06:01;;;;;;;10.73;7.30;;;23.90;60.10;;;;;;5019510;28;20021;-87
2021/07/10 08:08:27;;;;;;;10.38;7.43;;;23.80;60.20;;;;;;5025524;28;20049;-88
2021/07/10 08:10:53;;;;;;;12.93;9.70;;;23.80;60.00;;;;;;5020636;28;20638;-85
2021/07/10 08:13:18;;;;;;;9.23;7.07;;;23.90;60.10;;;;;;4999593;28;20108;-86
2021/07/10 08:15:44;;;;;;;11.05;7.88;;;23.80;60.10;;;;;;5010449;28;20117;-87
2021/07/10 08:18:10;;;;;;;10.43;7.97;;;24.00;60.10;;;;;;5010943;28;20139;-87
2021/07/10 08:20:35;;;;;;;10.38;8.77;;;24.00;59.80;;;;;;4993628;28;20137;-87
2021/07/10 08:23:01;;;;;;;11.77;9.32;;;23.90;59.60;;;;;;4993441;28;20038;-86
2021/07/10 08:25:27;;;;;;;9.07;7.55;;;23.90;59.80;;;;;;5011686;28;20084;-87
2021/07/10 08:27:53;;;;;;;8.50;6.80;;;23.90;59.90;;;;;;5000688;28;20030;-86
2021/07/10 08:30:19;;;;;;;8.27;6.68;;;23.90;59.60;;;;;;4997147;28;20106;-87
2021/07/10 08:32:46;;;;;;;9.20;6.93;;;23.90;59.50;;;;;;4994753;28;20067;-87
2021/07/10 08:35:14;;;;;;;8.20;6.40;;;23.90;59.50;;;;;;5000839;28;20431;-86
2021/07/10 08:37:40;;;;;;;8.38;6.40;;;23.90;59.40;;;;;;5021580;28;20017;-86
2021/07/10 08:40:07;;;;;;;7.70;5.55;;;24.00;59.30;;;;;;5021775;28;20659;-86
2021/07/10 08:42:33;;;;;;;6.63;5.32;;;24.10;59.10;;;;;;5022423;28;20033;-86
2021/07/10 08:45:04;;;;;;;6.78;5.57;;;24.30;58.90;;;;;;5020289;28;20169;-86
2021/07/10 08:47:33;;;;;;;5.72;4.78;;;24.50;58.60;;;;;;5020127;28;20038;-87
2021/07/10 08:49:59;;;;;;;4.30;3.63;;;24.60;58.40;;;;;;5022388;28;20119;-87
2021/07/10 08:52:24;;;;;;;7.13;3.28;;;24.70;57.80;;;;;;5021194;28;20482;-87
2021/07/10 08:54:50;;;;;;;4.75;3.53;;;24.80;57.30;;;;;;5017986;28;20392;-87
2021/07/10 08:57:18;;;;;;;4.35;3.53;;;24.80;56.50;;;;;;5021482;28;20028;-87
2021/07/10 08:59:43;;;;;;;4.35;3.75;;;24.70;56.20;;;;;;5005248;28;20031;-87
2021/07/10 09:02:09;;;;;;;5.78;4.38;;;24.70;56.30;;;;;;4997823;28;20053;-86
2021/07/10 09:04:34;;;;;;;55.35;42.58;;;24.80;56.20;;;;;;5011783;28;20022;-86
2021/07/10 09:07:00;;;;;;;15.27;13.68;;;24.70;56.00;;;;;;5000066;28;20116;-86
2021/07/10 09:09:47;;;;;;;8.95;6.65;;;24.80;56.10;;;;;;5013023;28;20077;-89
2021/07/10 09:12:13;;;;;;;5.38;4.47;;;24.80;55.80;;;;;;5000352;28;20120;-88
2021/07/10 09:14:41;;;;;;;5.85;4.25;;;24.70;55.50;;;;;;5011176;28;20502;-88
2021/07/10 09:17:18;;;;;;;6.63;4.55;;;24.70;55.30;;;;;;5011391;28;20046;-87
2021/07/10 09:19:45;;;;;;;4.28;3.05;;;24.50;54.10;;;;;;5004683;28;20023;-88
2021/07/10 09:22:11;;;;;;;3.53;2.45;;;24.40;54.50;;;;;;5011489;28;20496;-88
2021/07/10 09:24:38;;;;;;;4.28;3.15;;;24.40;54.60;;;;;;5013560;28;20022;-88
2021/07/10 09:27:09;;;;;;;2.63;2.30;;;24.40;54.30;;;;;;5018681;28;20030;-87
2021/07/10 09:29:39;;;;;;;2.55;1.90;;;24.50;53.90;;;;;;5022117;28;20017;-88
2021/07/10 09:32:16;;;;;;;2.67;1.67;;;24.60;53.70;;;;;;5013084;28;20058;-87
2021/07/10 09:34:45;;;;;;;2.90;2.28;;;24.60;53.50;;;;;;5012496;28;20511;-88
2021/07/10 09:37:19;;;;;;;3.55;2.78;;;24.70;53.40;;;;;;4997061;28;20401;-88
2021/07/10 09:39:56;;;;;;;4.30;2.88;;;24.90;53.20;;;;;;5010417;28;20022;-88
2021/07/10 09:42:33;;;;;;;3.30;2.55;;;24.90;53.20;;;;;;5001793;28;20088;-88
2021/07/10 09:44:59;;;;;;;3.28;2.47;;;25.00;52.40;;;;;;5008366;28;20041;-88
2021/07/10 09:47:36;;;;;;;5.53;3.65;;;25.20;52.40;;;;;;4999986;28;20472;-87
2021/07/10 09:50:05;;;;;;;4.07;2.72;;;25.30;51.90;;;;;;5010364;28;20025;-87
2021/07/10 09:52:35;;;;;;;2.30;2.10;;;25.30;52.20;;;;;;5011934;28;20045;-88
2021/07/10 09:55:08;;;;;;;4.05;2.97;;;25.50;52.20;;;;;;5010973;28;20036;-87
2021/07/10 09:57:37;;;;;;;3.25;2.40;;;25.60;51.80;;;;;;5010933;28;20010;-88
2021/07/10 10:00:09;;;;;;;5.07;3.00;;;25.70;51.70;;;;;;5009840;28;20424;-88
2021/07/10 10:02:41;;;;;;;;;;;25.70;51.80;;;;;;5012102;28;20033;-88
2021/07/10 10:05:10;;;;;;;3.35;2.88;;;25.80;51.00;;;;;;5013104;28;20004;-88
2021/07/10 10:07:43;;;;;;;3.33;2.92;;;25.50;50.70;;;;;;5006784;28;20010;-88
2021/07/10 10:10:15;;;;;;;2.60;2.30;;;25.50;50.70;;;;;;5007755;28;20029;-87
2021/07/10 10:12:41;;;;;;;2.80;2.30;;;25.50;50.70;;;;;;5010650;28;20436;-87
2021/07/10 10:15:09;;;;;;;3.95;3.00;;;25.60;50.60;;;;;;5010623;28;20025;-88
2021/07/10 10:17:35;;;;;;;3.42;2.50;;;25.50;49.30;;;;;;5005553;28;20088;-88
2021/07/10 10:20:01;;;;;;;5.47;4.32;;;25.40;49.60;;;;;;5011698;28;20030;-88
2021/07/10 10:22:27;;;;;;;3.20;2.50;;;25.30;48.70;;;;;;5011655;28;20033;-88
2021/07/10 10:24:54;;;;;;;3.65;2.75;;;25.30;49.60;;;;;;5012168;28;20024;-88
2021/07/10 10:27:20;;;;;;;3.10;2.28;;;25.30;49.60;;;;;;5011275;28;20022;-87
2021/07/10 10:29:49;;;;;;;5.25;3.38;;;25.30;49.90;;;;;;5012156;28;20018;-87
2021/07/10 10:32:15;;;;;;;3.65;3.10;;;25.30;49.70;;;;;;5010584;28;20519;-88
2021/07/10 10:34:41;;;;;;;4.72;2.97;;;25.30;49.60;;;;;;5010562;28;20053;-88
2021/07/10 10:37:08;;;;;;;5.63;4.20;;;25.20;49.50;;;;;;5010708;28;20044;-88
2021/07/10 10:39:35;;;;;;;4.57;3.75;;;25.00;48.60;;;;;;5010789;28;20017;-87
2021/07/10 10:42:17;;;;;;;4.00;2.80;;;25.00;49.10;;;;;;5012103;28;20045;-87
2021/07/10 10:44:44;;;;;;;5.15;2.67;;;25.10;49.60;;;;;;5004419;28;20030;-86
2021/07/10 10:47:12;;;;;;;3.63;2.50;;;25.50;49.60;;;;;;5004178;28;20121;-87
2021/07/10 10:49:44;;;;;;;3.88;3.20;;;25.70;49.00;;;;;;5010129;28;20018;-86
2021/07/10 10:52:41;;;;;;;2.63;2.00;;;25.90;49.00;;;;;;5010389;28;20037;-86
2021/07/10 10:55:06;;;;;;;5.13;3.80;;;26.00;49.00;;;;;;5009728;28;20033;-87
2021/07/10 10:57:43;;;;;;;4.30;3.47;;;26.10;48.40;;;;;;5000634;28;20030;-86
2021/07/10 11:00:25;;;;;;;4.20;3.28;;;26.00;47.80;;;;;;5002829;28;20026;-85
2021/07/10 11:03:00;;;;;;;4.43;3.60;;;25.90;47.40;;;;;;5001484;28;20439;-86
2021/07/10 11:05:31;;;;;;;4.78;2.97;;;25.80;47.70;;;;;;5007810;28;20506;-86
2021/07/10 11:08:19;;;;;;;3.03;2.67;;;25.90;47.90;;;;;;5003171;28;20433;-86
2021/07/10 11:10:46;;;;;;;4.88;4.10;;;26.00;47.90;;;;;;5023875;28;20018;-86
2021/07/10 11:13:36;;;;;;;3.45;2.92;;;25.70;47.10;;;;;;5008468;28;20038;-86
2021/07/10 11:16:20;;;;;;;3.25;2.05;;;25.60;47.90;;;;;;5001142;28;20053;-84
2021/07/10 11:18:56;;;;;;;2.80;2.08;;;25.80;48.00;;;;;;5006053;28;20018;-84
2021/07/10 11:21:41;;;;;;;3.53;2.75;;;25.90;47.60;;;;;;5001702;28;20030;-86
2021/07/10 11:27:04;;;;;;;3.53;2.85;;;26.10;47.50;;;;;;5010263;28;20022;-84
2021/07/10 11:29:40;;;;;;;5.75;3.13;;;26.20;47.20;;;;;;5008832;28;20026;-84
2021/07/10 11:32:15;;;;;;;5.15;3.42;;;26.30;47.40;;;;;;5010034;28;20083;-85
2021/07/10 11:34:44;;;;;;;3.58;2.83;;;26.20;47.50;;;;;;5010250;28;20127;-84
2021/07/10 11:37:22;;;;;;;4.30;3.55;;;26.30;47.70;;;;;;5004324;28;20026;-85
2021/07/10 11:39:58;;;;;;;5.05;3.63;;;26.20;47.80;;;;;;5010450;28;20029;-85
2021/07/10 11:42:26;;;;;;;4.93;3.75;;;26.30;48.00;;;;;;5009656;28;20069;-84
2021/07/10 11:45:08;;;;;;;4.93;3.33;;;26.30;48.30;;;;;;5008687;28;20018;-84
2021/07/10 11:47:46;;;;;;;4.65;3.55;;;26.30;48.30;;;;;;5008751;28;20033;-85
2021/07/10 11:50:21;;;;;;;6.93;3.60;;;26.30;48.40;;;;;;5010055;28;20040;-84
2021/07/10 11:53:06;;;;;;;4.40;3.72;;;26.30;48.40;;;;;;5008142;28;20037;-85
2021/07/10 11:55:36;;;;;;;7.65;5.35;;;26.40;48.30;;;;;;5003154;28;20046;-85
2021/07/10 11:58:10;;;;;;;5.07;3.70;;;26.60;47.40;;;;;;5008406;28;20048;-85
2021/07/10 12:00:36;;;;;;;5.15;3.90;;;26.40;47.30;;;;;;4993434;28;20034;-84
2021/07/10 12:03:03;;;;;;;4.43;3.85;;;26.60;47.50;;;;;;5008682;28;20046;-85
2021/07/10 12:05:33;;;;;;;5.90;4.85;;;26.70;47.60;;;;;;5013090;28;20013;-85
2021/07/10 12:08:00;;;;;;;6.25;4.75;;;26.70;47.00;;;;;;5013866;28;20080;-85
2021/07/10 12:10:35;;;;;;;3.50;2.85;;;26.70;47.20;;;;;;5012759;28;20156;-85
2021/07/10 12:13:12;;;;;;;2.45;2.20;;;26.70;47.30;;;;;;5012239;28;20084;-85
2021/07/10 12:15:40;;;;;;;2.95;2.35;;;26.90;47.10;;;;;;5015187;28;20388;-84
2021/07/10 12:18:08;;;;;;;4.18;2.53;;;27.20;46.40;;;;;;5013510;28;20026;-85
2021/07/10 12:20:49;;;;;;;4.03;2.65;;;27.30;45.90;;;;;;5014809;28;20053;-83
2021/07/10 12:23:39;;;;;;;3.75;2.67;;;27.50;45.60;;;;;;5013320;28;20036;-84
2021/07/10 12:26:11;;;;;;;4.53;3.00;;;27.60;45.70;;;;;;5009939;28;20391;-85
2021/07/10 12:28:40;;;;;;;3.88;3.25;;;27.80;45.00;;;;;;5013209;28;20020;-87
2021/07/10 12:31:29;;;;;;;2.53;2.25;;;27.90;45.00;;;;;;5015323;28;20059;-86
2021/07/10 12:34:05;;;;;;;3.28;2.00;;;27.90;42.90;;;;;;5010228;28;20029;-86
2021/07/10 12:36:44;;;;;;;2.58;1.80;;;27.70;41.40;;;;;;5014471;28;20022;-87
2021/07/10 12:39:19;;;;;;;2.05;1.75;;;27.90;41.80;;;;;;5014898;28;20021;-86
2021/07/10 12:41:59;;;;;;;2.83;2.10;;;28.30;41.80;;;;;;5016711;28;20029;-86
2021/07/10 12:44:31;;;;;;;2.25;1.95;;;28.40;41.10;;;;;;5018647;28;20021;-87
2021/07/10 12:46:57;;;;;;;2.40;1.88;;;28.50;41.30;;;;;;5016859;28;20028;-85
2021/07/10 12:49:47;;;;;;;2.15;1.80;;;28.70;41.60;;;;;;5018910;28;20109;-85
2021/07/10 12:52:20;;;;;;;2.55;1.75;;;28.80;41.60;;;;;;5006696;28;20524;-87